createdAt,value
2022-08-02T00:00:55.727Z,3.20
2022-08-02T00:01:57.709Z,3.58
2022-08-02T00:02:59.356Z,3.40
2022-08-02T00:04:01.065Z,3.33
2022-08-02T00:05:02.972Z,3.08
2022-08-02T00:06:04.685Z,3.40
2022-08-02T00:07:06.288Z,2.85
2022-08-02T00:08:07.864Z,3.33
2022-08-02T00:09:09.505Z,3.00
2022-08-02T00:10:12.914Z,3.03
2022-08-02T00:11:14.612Z,3.20
2022-08-02T00:12:16.556Z,3.20
2022-08-02T00:13:18.151Z,3.45
2022-08-02T00:14:19.819Z,3.30
2022-08-02T00:15:21.499Z,3.50
2022-08-02T00:16:37.260Z,3.40
2022-08-02T00:17:40.100Z,3.38
2022-08-02T00:18:41.730Z,3.25
2022-08-02T00:19:43.910Z,3.40
2022-08-02T00:20:45.500Z,3.00
2022-08-02T00:21:47.179Z,3.17
2022-08-02T00:22:48.770Z,3.00
2022-08-02T00:24:27.764Z,3.28
2022-08-02T00:25:12.061Z,3.22
2022-08-02T00:26:13.716Z,3.15
2022-08-02T00:27:15.312Z,3.63
2022-08-02T00:28:20.591Z,3.60
2022-08-02T00:29:32.355Z,3.47
2022-08-02T00:30:34.383Z,2.92
2022-08-02T00:31:36.060Z,3.30
2022-08-02T00:32:37.670Z,3.20
2022-08-02T00:34:27.462Z,3.53
2022-08-02T00:35:01.752Z,3.42
2022-08-02T00:36:03.888Z,3.22
2022-08-02T00:37:05.503Z,3.50
2022-08-02T00:38:07.170Z,3.33
2022-08-02T00:39:34.415Z,3.10
2022-08-02T00:40:30.766Z,3.30
2022-08-02T00:41:32.423Z,3.20
2022-08-02T00:42:34.015Z,3.50
2022-08-02T00:43:35.629Z,3.70
2022-08-02T00:44:37.244Z,4.18
2022-08-02T00:46:02.037Z,3.97
2022-08-02T00:47:02.195Z,3.60
2022-08-02T00:48:05.351Z,3.38
2022-08-02T00:49:07.034Z,3.30
2022-08-02T00:50:09.130Z,3.10
2022-08-02T00:51:11.927Z,3.67
2022-08-02T00:52:13.874Z,3.80
2022-08-02T00:53:15.652Z,3.40
2022-08-02T00:54:17.231Z,3.70
2022-08-02T00:55:19.010Z,3.33
2022-08-02T00:56:32.824Z,3.70
2022-08-02T00:57:34.462Z,3.53
2022-08-02T00:58:36.227Z,3.80
2022-08-02T00:59:37.935Z,3.45
2022-08-02T01:00:39.556Z,3.75
2022-08-02T01:01:57.136Z,3.90
2022-08-02T01:02:59.686Z,3.97
2022-08-02T01:04:01.297Z,3.75
2022-08-02T01:05:03.782Z,4.32
2022-08-02T01:06:13.408Z,3.90
2022-08-02T01:07:15.835Z,3.58
2022-08-02T01:08:17.702Z,4.18
2022-08-02T01:09:19.567Z,3.63
2022-08-02T01:10:21.254Z,3.95
2022-08-02T01:11:22.827Z,4.90
2022-08-02T01:12:24.394Z,4.53
2022-08-02T01:13:27.608Z,3.92
2022-08-02T01:14:29.762Z,4.15
2022-08-02T01:15:35.582Z,4.40
2022-08-02T01:16:54.093Z,3.88
2022-08-02T01:18:28.519Z,3.70
2022-08-02T01:19:30.036Z,4.05
2022-08-02T01:20:53.519Z,4.50
2022-08-02T01:22:15.079Z,4.40
2022-08-02T01:23:52.723Z,3.70
2022-08-02T01:25:13.256Z,3.70
2022-08-02T01:26:14.769Z,3.38
2022-08-02T01:28:07.425Z,3.53
2022-08-02T01:29:17.082Z,3.40
2022-08-02T01:30:19.742Z,3.80
2022-08-02T01:31:33.272Z,3.30
2022-08-02T01:32:41.596Z,3.88
2022-08-02T01:33:49.872Z,3.65
2022-08-02T01:34:56.421Z,3.90
2022-08-02T01:36:00.220Z,4.00
2022-08-02T01:37:17.003Z,3.85
2022-08-02T01:38:28.003Z,3.80
2022-08-02T01:39:33.591Z,3.80
2022-08-02T01:40:38.642Z,3.50
2022-08-02T01:41:42.494Z,3.67
2022-08-02T01:42:48.515Z,3.42
2022-08-02T01:43:55.886Z,3.65
2022-08-02T01:44:59.463Z,3.63
2022-08-02T01:46:01.593Z,4.00
2022-08-02T01:47:08.059Z,4.05
2022-08-02T01:48:11.471Z,4.03
2022-08-02T01:49:17.871Z,3.55
2022-08-02T01:50:25.876Z,3.63
2022-08-02T01:51:47.338Z,3.33
2022-08-02T01:52:53.237Z,4.15
2022-08-02T01:53:55.966Z,3.40
2022-08-02T01:55:18.786Z,3.67
2022-08-02T01:56:22.025Z,4.20
2022-08-02T01:57:26.138Z,3.97
2022-08-02T01:58:31.554Z,3.88
2022-08-02T01:59:35.298Z,3.70
2022-08-02T02:00:40.129Z,3.78
2022-08-02T02:01:43.012Z,3.30
2022-08-02T02:02:47.754Z,4.07
2022-08-02T02:03:49.890Z,3.60
2022-08-02T02:04:53.010Z,3.60
2022-08-02T02:05:58.624Z,4.13
2022-08-02T02:07:01.640Z,3.72
2022-08-02T02:08:07.243Z,3.85
2022-08-02T02:09:09.801Z,3.63
2022-08-02T02:10:15.629Z,3.65
2022-08-02T02:12:09.399Z,3.45
2022-08-02T02:12:40.662Z,3.45
2022-08-02T02:13:42.877Z,3.63
2022-08-02T02:14:49.164Z,3.40
2022-08-02T02:15:55.493Z,3.40
2022-08-02T02:16:59.320Z,3.17
2022-08-02T02:18:12.697Z,3.28
2022-08-02T02:19:20.864Z,3.00
2022-08-02T02:20:23.961Z,3.60
2022-08-02T02:21:25.674Z,3.40
2022-08-02T02:22:27.347Z,3.15
2022-08-02T02:23:30.165Z,3.17
2022-08-02T02:24:37.222Z,3.45
2022-08-02T02:25:41.722Z,3.20
2022-08-02T02:26:52.265Z,2.97
2022-08-02T02:28:13.074Z,3.80
2022-08-02T02:29:16.458Z,3.38
2022-08-02T02:30:18.358Z,3.53
2022-08-02T02:31:21.649Z,3.90
2022-08-02T02:32:25.010Z,3.97
2022-08-02T02:33:29.581Z,3.53
2022-08-02T02:34:37.835Z,3.63
2022-08-02T02:35:42.256Z,3.63
2022-08-02T02:36:50.879Z,3.50
2022-08-02T02:37:54.936Z,3.70
2022-08-02T02:39:03.661Z,3.83
2022-08-02T02:40:06.888Z,3.95
2022-08-02T02:41:09.768Z,3.58
2022-08-02T02:42:15.511Z,3.70
2022-08-02T02:43:17.616Z,4.00
2022-08-02T02:44:21.575Z,4.10
2022-08-02T02:45:24.226Z,4.13
2022-08-02T02:46:27.293Z,4.27
2022-08-02T02:47:40.509Z,4.13
2022-08-02T02:48:43.926Z,4.27
2022-08-02T02:49:48.181Z,4.87
2022-08-02T02:50:51.014Z,4.67
2022-08-02T02:51:53.948Z,4.73
2022-08-02T02:52:56.834Z,4.80
2022-08-02T02:54:32.280Z,4.73
2022-08-02T02:55:22.933Z,4.80
2022-08-02T02:56:24.983Z,5.00
2022-08-02T02:57:26.826Z,5.00
2022-08-02T02:58:29.099Z,4.63
2022-08-02T02:59:32.583Z,4.93
2022-08-02T03:00:52.850Z,5.00
2022-08-02T03:01:57.646Z,4.80
2022-08-02T03:02:59.797Z,5.20
2022-08-02T03:04:04.357Z,4.83
2022-08-02T03:05:10.791Z,4.67
2022-08-02T03:06:15.072Z,4.77
2022-08-02T03:07:17.952Z,4.77
2022-08-02T03:08:19.602Z,5.03
2022-08-02T03:09:21.327Z,5.07
2022-08-02T03:10:22.919Z,5.27
2022-08-02T03:11:29.807Z,4.60
2022-08-02T03:12:32.594Z,4.70
2022-08-02T03:13:37.482Z,4.67
2022-08-02T03:14:43.479Z,4.80
2022-08-02T03:15:46.844Z,5.13
2022-08-02T03:16:50.921Z,5.10
2022-08-02T03:17:52.555Z,5.07
2022-08-02T03:18:55.877Z,4.90
2022-08-02T03:19:57.497Z,4.47
2022-08-02T03:21:19.295Z,4.70
2022-08-02T03:22:20.939Z,4.40
2022-08-02T03:23:22.550Z,4.73
2022-08-02T03:24:27.606Z,4.80
2022-08-02T03:25:30.159Z,4.20
2022-08-02T03:26:32.003Z,4.93
2022-08-02T03:27:33.637Z,4.53
2022-08-02T03:28:35.324Z,4.53
2022-08-02T03:29:36.959Z,4.60
2022-08-02T03:30:38.526Z,4.63
2022-08-02T03:31:42.813Z,4.27
2022-08-02T03:32:47.377Z,4.63
2022-08-02T03:33:49.538Z,4.50
2022-08-02T03:34:51.198Z,4.20
2022-08-02T03:35:55.382Z,4.70
2022-08-02T03:36:58.216Z,4.13
2022-08-02T03:38:00.402Z,4.50
2022-08-02T03:39:04.302Z,4.20
2022-08-02T03:40:08.231Z,4.40
2022-08-02T03:41:12.826Z,4.03
2022-08-02T03:42:16.178Z,4.18
2022-08-02T03:43:18.049Z,4.50
2022-08-02T03:44:19.992Z,4.10
2022-08-02T03:45:22.404Z,4.43
2022-08-02T03:46:26.582Z,4.07
2022-08-02T03:47:28.979Z,4.55
2022-08-02T03:48:34.802Z,4.63
2022-08-02T03:49:37.783Z,3.95
2022-08-02T03:50:41.035Z,4.60
2022-08-02T03:51:42.932Z,4.22
2022-08-02T03:52:47.626Z,3.95
2022-08-02T03:53:49.365Z,3.90
2022-08-02T03:54:51.185Z,4.05
2022-08-02T03:55:55.836Z,3.67
2022-08-02T03:56:57.947Z,3.90
2022-08-02T03:57:59.706Z,4.25
2022-08-02T03:59:09.473Z,3.95
2022-08-02T04:00:18.009Z,4.47
2022-08-02T04:01:19.678Z,4.90
2022-08-02T04:02:21.332Z,5.45
2022-08-02T04:03:23.080Z,4.45
2022-08-02T04:04:24.709Z,4.45
2022-08-02T04:05:26.458Z,4.22
2022-08-02T04:06:28.480Z,4.25
2022-08-02T04:08:03.486Z,4.53
2022-08-02T04:08:53.038Z,3.70
2022-08-02T04:09:54.611Z,4.38
2022-08-02T04:11:14.603Z,4.30
2022-08-02T04:12:16.171Z,3.83
2022-08-02T04:13:17.833Z,3.88
2022-08-02T04:14:23.094Z,4.13
2022-08-02T04:15:25.015Z,3.88
2022-08-02T04:16:38.910Z,4.28
2022-08-02T04:17:45.997Z,4.30
2022-08-02T04:18:55.278Z,3.92
2022-08-02T04:20:04.146Z,3.50
2022-08-02T04:21:09.502Z,3.50
2022-08-02T04:22:16.519Z,3.28
2022-08-02T04:23:18.640Z,3.65
2022-08-02T04:24:27.985Z,3.67
2022-08-02T04:25:40.258Z,3.80
2022-08-02T04:26:44.162Z,3.60
2022-08-02T04:28:17.310Z,4.05
2022-08-02T04:29:14.159Z,3.92
2022-08-02T04:30:17.595Z,3.40
2022-08-02T04:31:19.885Z,3.25
2022-08-02T04:32:22.549Z,3.75
2022-08-02T04:33:25.004Z,4.00
2022-08-02T04:34:26.781Z,4.28
2022-08-02T04:35:28.636Z,3.78
2022-08-02T04:36:31.022Z,3.80
2022-08-02T04:37:34.680Z,4.20
2022-08-02T04:38:36.902Z,3.95
2022-08-02T04:39:38.688Z,3.83
2022-08-02T04:40:40.346Z,3.88
2022-08-02T04:41:44.536Z,3.88
2022-08-02T04:42:46.221Z,4.10
2022-08-02T04:43:47.876Z,3.53
2022-08-02T04:44:50.552Z,4.47
2022-08-02T04:45:55.090Z,3.92
2022-08-02T04:46:58.199Z,3.35
2022-08-02T04:48:04.804Z,4.30
2022-08-02T04:49:07.344Z,3.65
2022-08-02T04:50:09.543Z,3.70
2022-08-02T04:51:11.121Z,3.65
2022-08-02T04:52:13.647Z,3.53
2022-08-02T04:53:15.706Z,3.75
2022-08-02T04:54:17.329Z,3.70
2022-08-02T04:55:18.927Z,3.45
2022-08-02T04:56:21.307Z,3.63
2022-08-02T04:57:52.928Z,3.65
2022-08-02T04:58:54.847Z,3.22
2022-08-02T04:59:57.060Z,3.20
2022-08-02T05:00:58.705Z,3.30
2022-08-02T05:02:00.293Z,3.30
2022-08-02T05:03:01.984Z,3.08
2022-08-02T05:04:03.790Z,3.40
2022-08-02T05:05:10.165Z,3.28
2022-08-02T05:06:19.508Z,3.30
2022-08-02T05:07:21.353Z,3.22
2022-08-02T05:08:22.910Z,3.10
2022-08-02T05:09:24.467Z,3.03
2022-08-02T05:10:26.081Z,3.75
2022-08-02T05:11:36.295Z,3.00
2022-08-02T05:12:40.215Z,3.03
2022-08-02T05:13:58.092Z,2.90
2022-08-02T05:15:01.117Z,2.97
2022-08-02T05:16:04.628Z,3.08
2022-08-02T05:17:06.812Z,3.47
2022-08-02T05:18:08.574Z,3.75
2022-08-02T05:19:10.212Z,5.00
2022-08-02T05:20:15.482Z,5.45
2022-08-02T05:21:17.123Z,4.97
2022-08-02T05:22:18.736Z,5.57
2022-08-02T05:23:20.569Z,5.03
2022-08-02T05:24:22.179Z,5.65
2022-08-02T05:25:23.742Z,5.35
2022-08-02T05:26:25.544Z,4.65
2022-08-02T05:27:27.235Z,4.30
2022-08-02T05:28:28.972Z,4.15
2022-08-02T05:29:31.626Z,4.13
2022-08-02T05:30:33.238Z,4.68
2022-08-02T05:31:34.855Z,4.85
2022-08-02T05:32:46.793Z,5.20
2022-08-02T05:33:48.521Z,5.30
2022-08-02T05:34:50.167Z,4.53
2022-08-02T05:35:51.871Z,4.88
2022-08-02T05:36:53.478Z,4.80
2022-08-02T05:37:55.237Z,5.55
2022-08-02T05:39:04.628Z,6.10
2022-08-02T05:40:12.706Z,4.93
2022-08-02T05:41:14.962Z,4.10
2022-08-02T05:42:16.662Z,3.88
2022-08-02T05:43:18.293Z,5.18
2022-08-02T05:44:22.539Z,4.28
2022-08-02T05:45:24.258Z,3.90
2022-08-02T05:46:26.258Z,4.28
2022-08-02T05:47:28.636Z,4.15
2022-08-02T05:48:32.396Z,4.30
2022-08-02T05:49:34.408Z,3.95
2022-08-02T05:50:39.880Z,4.25
2022-08-02T05:52:09.607Z,4.07
2022-08-02T05:53:18.608Z,4.28
2022-08-02T05:54:27.655Z,4.18
2022-08-02T05:55:35.290Z,3.90
2022-08-02T05:56:50.566Z,4.32
2022-08-02T05:58:01.448Z,3.97
2022-08-02T05:59:18.754Z,3.97
2022-08-02T06:00:21.689Z,4.65
2022-08-02T06:01:44.990Z,4.32
2022-08-02T06:03:05.510Z,4.45
2022-08-02T06:04:09.836Z,4.03
2022-08-02T06:05:11.588Z,4.07
2022-08-02T06:06:16.166Z,4.35
2022-08-02T06:07:19.729Z,4.65
2022-08-02T06:08:25.640Z,4.22
2022-08-02T06:09:28.364Z,4.20
2022-08-02T06:10:31.284Z,4.25
2022-08-02T06:12:02.408Z,3.90
2022-08-02T06:13:14.559Z,4.25
2022-08-02T06:14:16.860Z,3.92
2022-08-02T06:15:20.329Z,3.70
2022-08-02T06:16:32.458Z,3.80
2022-08-02T06:17:34.920Z,3.90
2022-08-02T06:18:44.153Z,3.88
2022-08-02T06:19:52.494Z,4.32
2022-08-02T06:20:57.360Z,3.78
2022-08-02T06:22:32.695Z,3.85
2022-08-02T06:23:42.686Z,4.40
2022-08-02T06:25:02.557Z,4.15
2022-08-02T06:26:07.072Z,3.80
2022-08-02T06:27:09.102Z,3.58
2022-08-02T06:28:11.812Z,3.83
2022-08-02T06:29:14.878Z,3.40
2022-08-02T06:30:16.784Z,3.92
2022-08-02T06:31:19.293Z,3.33
2022-08-02T06:32:21.445Z,3.35
2022-08-02T06:33:24.366Z,3.90
2022-08-02T06:34:25.926Z,3.75
2022-08-02T06:36:01.151Z,3.60
2022-08-02T06:37:15.325Z,3.80
2022-08-02T06:38:24.283Z,3.85
2022-08-02T06:39:39.174Z,3.40
2022-08-02T06:40:43.767Z,3.85
2022-08-02T06:41:49.415Z,4.25
2022-08-02T06:42:59.908Z,4.00
2022-08-02T06:44:26.183Z,3.78
2022-08-02T06:45:24.956Z,4.00
2022-08-02T06:46:38.035Z,3.40
2022-08-02T06:47:48.976Z,3.97
2022-08-02T06:48:50.805Z,3.53
2022-08-02T06:49:54.235Z,3.70
2022-08-02T06:50:56.516Z,3.92
2022-08-02T06:51:58.210Z,4.05
2022-08-02T06:53:00.584Z,3.25
2022-08-02T06:54:02.306Z,3.55
2022-08-02T06:55:05.674Z,3.97
2022-08-02T06:56:07.363Z,3.20
2022-08-02T06:57:10.768Z,3.70
2022-08-02T06:58:14.090Z,3.40
2022-08-02T06:59:15.812Z,3.67
2022-08-02T07:00:17.465Z,4.03
2022-08-02T07:01:19.941Z,3.40
2022-08-02T07:02:21.647Z,3.60
2022-08-02T07:03:25.514Z,3.58
2022-08-02T07:04:27.104Z,3.63
2022-08-02T07:05:28.737Z,3.47
2022-08-02T07:06:31.304Z,3.30
2022-08-02T07:07:33.429Z,3.70
2022-08-02T07:08:38.448Z,3.60
2022-08-02T07:10:00.887Z,3.45
2022-08-02T07:11:06.324Z,3.42
2022-08-02T07:12:08.184Z,3.55
2022-08-02T07:13:10.623Z,3.55
2022-08-02T07:14:12.301Z,3.40
2022-08-02T07:15:13.919Z,3.30
2022-08-02T07:16:15.704Z,3.60
2022-08-02T07:17:17.288Z,3.55
2022-08-02T07:18:18.964Z,3.53
2022-08-02T07:19:20.635Z,3.78
2022-08-02T07:20:23.270Z,3.60
2022-08-02T07:21:56.352Z,3.80
2022-08-02T07:22:46.480Z,4.00
2022-08-02T07:23:48.089Z,3.45
2022-08-02T07:24:50.257Z,3.53
2022-08-02T07:26:02.642Z,3.30
2022-08-02T07:27:11.556Z,3.40
2022-08-02T07:28:24.091Z,3.63
2022-08-02T07:29:26.874Z,3.17
2022-08-02T07:30:34.371Z,3.47
2022-08-02T07:31:36.263Z,3.72
2022-08-02T07:32:38.082Z,3.75
2022-08-02T07:33:42.357Z,3.28
2022-08-02T07:34:52.876Z,3.75
2022-08-02T07:35:57.424Z,3.90
2022-08-02T07:36:59.057Z,3.33
2022-08-02T07:38:02.984Z,3.60
2022-08-02T07:39:06.190Z,3.30
2022-08-02T07:40:14.067Z,3.58
2022-08-02T07:41:17.079Z,3.00
2022-08-02T07:42:18.743Z,3.50
2022-08-02T07:43:20.370Z,3.40
2022-08-02T07:44:22.180Z,2.95
2022-08-02T07:45:27.699Z,3.70
2022-08-02T07:46:29.358Z,3.20
2022-08-02T07:47:31.346Z,3.67
2022-08-02T07:48:33.582Z,3.58
2022-08-02T07:49:35.319Z,3.60
2022-08-02T07:50:37.007Z,3.40
2022-08-02T07:51:38.597Z,3.33
2022-08-02T07:52:44.815Z,3.13
2022-08-02T07:53:51.200Z,3.55
2022-08-02T07:55:05.381Z,2.95
2022-08-02T07:56:07.006Z,3.38
2022-08-02T07:57:08.639Z,3.10
2022-08-02T07:58:12.284Z,3.28
2022-08-02T07:59:15.031Z,3.35
2022-08-02T08:00:17.612Z,3.70
2022-08-02T08:01:19.608Z,3.15
2022-08-02T08:02:21.357Z,3.50
2022-08-02T08:03:23.037Z,3.65
2022-08-02T08:04:24.668Z,3.67
2022-08-02T08:05:26.221Z,3.00
2022-08-02T08:06:29.046Z,3.10
2022-08-02T08:07:30.936Z,3.47
2022-08-02T08:08:35.105Z,3.50
2022-08-02T08:09:42.353Z,3.42
2022-08-02T08:10:44.116Z,3.20
2022-08-02T08:11:45.817Z,3.20
2022-08-02T08:12:47.400Z,3.60
2022-08-02T08:13:49.067Z,2.60
2022-08-02T08:14:50.748Z,2.58
2022-08-02T08:15:52.783Z,2.80
2022-08-02T08:16:54.849Z,2.65
2022-08-02T08:17:56.710Z,3.05
2022-08-02T08:18:58.460Z,2.97
2022-08-02T08:20:01.707Z,2.88
2022-08-02T08:21:04.338Z,2.72
2022-08-02T08:22:06.128Z,2.80
2022-08-02T08:23:07.776Z,1.98
2022-08-02T08:24:09.411Z,2.70
2022-08-02T08:25:11.096Z,2.75
2022-08-02T08:26:15.767Z,2.60
2022-08-02T08:27:18.511Z,2.20
2022-08-02T08:28:20.283Z,2.13
2022-08-02T08:29:22.363Z,1.75
2022-08-02T08:30:24.079Z,1.98
2022-08-02T08:31:25.635Z,1.38
2022-08-02T08:32:27.646Z,1.80
2022-08-02T08:33:29.298Z,1.67
2022-08-02T08:34:31.447Z,1.55
2022-08-02T08:35:33.259Z,1.58
2022-08-02T08:36:34.834Z,1.80
2022-08-02T08:37:36.894Z,1.70
2022-08-02T08:38:38.520Z,1.80
2022-08-02T08:39:53.618Z,1.70
2022-08-02T08:41:00.385Z,1.92
2022-08-02T08:42:02.638Z,1.33
2022-08-02T08:43:04.954Z,1.40
2022-08-02T08:44:08.499Z,1.70
2022-08-02T08:45:10.633Z,1.30
2022-08-02T08:46:21.060Z,1.00
2022-08-02T08:47:24.085Z,1.05
2022-08-02T08:48:30.336Z,1.10
2022-08-02T08:49:37.169Z,1.20
2022-08-02T08:51:01.022Z,1.20
2022-08-02T08:52:06.729Z,1.48
2022-08-02T08:53:12.227Z,1.40
2022-08-02T08:54:17.314Z,1.33
2022-08-02T08:55:23.199Z,1.20
2022-08-02T08:56:33.352Z,1.30
2022-08-02T08:57:39.991Z,1.30
2022-08-02T08:58:42.700Z,1.10
2022-08-02T08:59:46.376Z,1.00
2022-08-02T09:00:48.056Z,1.08
2022-08-02T09:01:53.237Z,1.00
2022-08-02T09:02:55.104Z,1.30
2022-08-02T09:03:57.413Z,1.30
2022-08-02T09:04:59.052Z,1.00
2022-08-02T09:06:01.018Z,1.00
2022-08-02T09:07:02.815Z,1.10
2022-08-02T09:08:05.202Z,1.25
2022-08-02T09:09:06.985Z,1.20
2022-08-02T09:10:33.680Z,1.15
2022-08-02T09:11:35.274Z,1.45
2022-08-02T09:12:36.869Z,0.90
2022-08-02T09:13:46.077Z,0.90
2022-08-02T09:14:50.280Z,0.80
2022-08-02T09:15:57.502Z,0.80
2022-08-02T09:17:12.199Z,1.05
2022-08-02T09:18:13.935Z,0.90
2022-08-02T09:19:24.243Z,0.80
2022-08-02T09:20:30.433Z,0.80
2022-08-02T09:21:37.134Z,0.88
2022-08-02T09:22:38.773Z,0.60
2022-08-02T09:23:46.385Z,0.80
2022-08-02T09:24:50.060Z,0.63
2022-08-02T09:26:07.391Z,0.90
2022-08-02T09:27:17.609Z,0.88
2022-08-02T09:28:19.237Z,0.80
2022-08-02T09:29:24.965Z,0.82
2022-08-02T09:30:27.041Z,1.13
2022-08-02T09:31:28.712Z,0.98
2022-08-02T09:32:43.953Z,0.80
2022-08-02T09:33:57.725Z,0.57
2022-08-02T09:34:59.307Z,0.70
2022-08-02T09:36:06.314Z,0.93
2022-08-02T09:37:22.909Z,1.00
2022-08-02T09:38:25.963Z,1.02
2022-08-02T09:39:44.996Z,0.93
2022-08-02T09:40:49.237Z,0.70
2022-08-02T09:41:50.878Z,0.50
2022-08-02T09:43:01.327Z,0.70
2022-08-02T09:44:07.107Z,1.17
2022-08-02T09:45:09.534Z,0.90
2022-08-02T09:46:24.458Z,1.00
2022-08-02T09:47:28.272Z,1.00
2022-08-02T09:48:32.740Z,0.93
2022-08-02T09:49:34.401Z,1.10
2022-08-02T09:50:41.913Z,0.73
2022-08-02T09:51:49.659Z,0.85
2022-08-02T09:52:51.328Z,0.93
2022-08-02T09:54:08.592Z,1.27
2022-08-02T09:55:11.816Z,1.02
2022-08-02T09:56:29.523Z,0.80
2022-08-02T09:57:38.527Z,1.08
2022-08-02T09:58:40.459Z,0.90
2022-08-02T09:59:53.475Z,0.90
2022-08-02T10:00:56.779Z,0.70
2022-08-02T10:02:02.547Z,0.90
2022-08-02T10:03:21.557Z,1.20
2022-08-02T10:04:26.431Z,1.10
2022-08-02T10:05:35.607Z,0.90
2022-08-02T10:06:44.573Z,0.95
2022-08-02T10:07:46.319Z,0.77
2022-08-02T10:08:48.147Z,0.70
2022-08-02T10:09:51.109Z,0.60
2022-08-02T10:11:00.591Z,0.80
2022-08-02T10:12:08.869Z,0.70
2022-08-02T10:13:11.622Z,0.90
2022-08-02T10:14:13.633Z,1.17
2022-08-02T10:15:17.567Z,1.13
2022-08-02T10:16:23.470Z,1.40
2022-08-02T10:17:25.369Z,1.17
2022-08-02T10:18:39.498Z,1.52
2022-08-02T10:20:02.467Z,1.73
2022-08-02T10:21:10.738Z,1.35
2022-08-02T10:22:15.296Z,1.60
2022-08-02T10:23:20.618Z,1.20
2022-08-02T10:24:27.170Z,1.10
2022-08-02T10:25:30.453Z,0.90
2022-08-02T10:26:32.902Z,0.80
2022-08-02T10:28:02.425Z,0.90
2022-08-02T10:28:57.822Z,1.17
2022-08-02T10:30:00.741Z,1.50
2022-08-02T10:31:05.637Z,1.35
2022-08-02T10:32:43.030Z,1.40
2022-08-02T10:33:50.098Z,1.20
2022-08-02T10:34:57.561Z,1.38
2022-08-02T10:36:07.553Z,1.20
2022-08-02T10:37:11.520Z,1.35
2022-08-02T10:38:18.296Z,1.42
2022-08-02T10:39:20.016Z,1.27
2022-08-02T10:40:26.543Z,1.00
2022-08-02T10:41:43.785Z,1.30
2022-08-02T10:42:45.373Z,0.90
2022-08-02T10:43:48.148Z,1.38
2022-08-02T10:45:09.593Z,1.30
2022-08-02T10:46:36.845Z,1.27
2022-08-02T10:47:38.531Z,0.98
2022-08-02T10:49:38.525Z,1.10
2022-08-02T10:50:46.049Z,0.93
2022-08-02T10:52:03.129Z,1.13
2022-08-02T10:53:27.685Z,1.10
2022-08-02T10:54:35.791Z,1.13
2022-08-02T10:55:46.551Z,1.10
2022-08-02T10:56:53.568Z,1.30
2022-08-02T10:58:29.931Z,1.30
2022-08-02T10:59:36.286Z,1.20
2022-08-02T11:00:38.121Z,1.00
2022-08-02T11:01:44.137Z,1.15
2022-08-02T11:02:53.387Z,1.48
2022-08-02T11:04:00.072Z,1.10
2022-08-02T11:05:05.176Z,1.20
2022-08-02T11:06:24.972Z,1.50
2022-08-02T11:07:39.507Z,1.55
2022-08-02T11:08:41.356Z,1.13
2022-08-02T11:09:46.936Z,1.52
2022-08-02T11:10:48.752Z,1.40
2022-08-02T11:12:10.995Z,1.38
2022-08-02T11:13:19.516Z,1.58
2022-08-02T11:14:21.301Z,1.40
2022-08-02T11:15:23.151Z,1.75
2022-08-02T11:17:07.802Z,1.40
2022-08-02T11:18:09.386Z,1.58
2022-08-02T11:19:11.907Z,1.40
2022-08-02T11:20:13.538Z,1.60
2022-08-02T11:21:29.977Z,1.30
2022-08-02T11:22:31.673Z,1.50
2022-08-02T11:23:45.175Z,1.60
2022-08-02T11:24:47.647Z,1.30
2022-08-02T11:26:10.805Z,1.75
2022-08-02T11:27:22.138Z,1.50
2022-08-02T11:28:25.714Z,1.73
2022-08-02T11:29:45.553Z,1.77
2022-08-02T11:30:56.777Z,1.73
2022-08-02T11:31:59.031Z,1.50
2022-08-02T11:33:01.299Z,1.52
2022-08-02T11:34:09.266Z,1.25
2022-08-02T11:35:12.097Z,1.25
2022-08-02T11:36:15.239Z,1.48
2022-08-02T11:37:43.440Z,1.50
2022-08-02T11:38:45.768Z,1.45
2022-08-02T11:39:51.840Z,1.38
2022-08-02T11:40:57.248Z,1.23
2022-08-02T11:42:00.898Z,1.20
2022-08-02T11:43:02.476Z,1.30
2022-08-02T11:44:04.452Z,1.30
2022-08-02T11:45:08.766Z,1.40
2022-08-02T11:46:14.844Z,1.50
2022-08-02T11:47:16.606Z,0.93
2022-08-02T11:48:35.469Z,1.42
2022-08-02T11:49:37.564Z,1.02
2022-08-02T11:50:39.286Z,1.02
2022-08-02T11:51:54.588Z,0.93
2022-08-02T11:52:56.326Z,1.05
2022-08-02T11:53:58.009Z,1.00
2022-08-02T11:54:59.787Z,1.20
2022-08-02T11:56:01.375Z,1.08
2022-08-02T11:57:15.612Z,1.10
2022-08-02T11:58:20.813Z,1.00
2022-08-02T11:59:22.562Z,0.98
2022-08-02T12:00:26.967Z,1.10
2022-08-02T12:01:36.753Z,1.00
2022-08-02T12:02:48.506Z,1.05
2022-08-02T12:03:50.416Z,1.10
2022-08-02T12:05:10.170Z,1.05
2022-08-02T12:06:16.732Z,1.08
2022-08-02T12:07:18.935Z,1.15
2022-08-02T12:08:37.806Z,1.00
2022-08-02T12:09:41.410Z,1.23
2022-08-02T12:10:49.844Z,0.90
2022-08-02T12:11:51.697Z,0.98
2022-08-02T12:12:58.994Z,1.15
2022-08-02T12:14:01.116Z,1.23
2022-08-02T12:15:02.816Z,1.02
2022-08-02T12:16:31.132Z,1.00
2022-08-02T12:17:51.194Z,0.90
2022-08-02T12:19:11.709Z,0.93
2022-08-02T12:20:17.373Z,0.93
2022-08-02T12:21:26.481Z,0.93
2022-08-02T12:22:28.362Z,0.82
2022-08-02T12:23:30.500Z,0.82
2022-08-02T12:24:32.126Z,0.80
2022-08-02T12:25:35.553Z,0.90
2022-08-02T12:26:45.292Z,0.70
2022-08-02T12:27:46.921Z,1.13
2022-08-02T12:28:57.479Z,0.90
2022-08-02T12:30:06.785Z,1.00
2022-08-02T12:31:10.757Z,1.00
2022-08-02T12:32:24.200Z,0.80
2022-08-02T12:33:44.083Z,1.00
2022-08-02T12:35:08.387Z,0.80
2022-08-02T12:36:20.252Z,0.80
2022-08-02T12:37:25.839Z,1.10
2022-08-02T12:38:27.462Z,0.80
2022-08-02T12:39:39.468Z,0.70
2022-08-02T12:40:41.548Z,0.95
2022-08-02T12:41:55.018Z,0.90
2022-08-02T12:42:59.336Z,0.75
2022-08-02T12:44:01.045Z,0.80
2022-08-02T12:45:02.640Z,0.85
2022-08-02T12:46:04.268Z,0.60
2022-08-02T12:47:12.103Z,0.73
2022-08-02T12:48:13.990Z,0.90
2022-08-02T12:49:19.828Z,0.80
2022-08-02T12:50:24.836Z,0.70
2022-08-02T12:51:56.512Z,0.80
2022-08-02T12:53:16.130Z,0.88
2022-08-02T12:54:27.421Z,0.70
2022-08-02T12:56:02.298Z,0.63
2022-08-02T12:56:55.040Z,0.60
2022-08-02T12:58:00.264Z,0.70
2022-08-02T12:59:01.974Z,0.80
2022-08-02T13:00:04.524Z,0.70
2022-08-02T13:01:06.130Z,0.70
2022-08-02T13:02:11.594Z,0.88
2022-08-02T13:04:11.239Z,0.52
2022-08-02T13:04:35.895Z,0.90
2022-08-02T13:05:57.187Z,0.88
2022-08-02T13:06:59.285Z,0.90
2022-08-02T13:08:00.988Z,0.85
2022-08-02T13:09:12.694Z,0.98
2022-08-02T13:10:14.595Z,0.98
2022-08-02T13:11:16.485Z,0.80
2022-08-02T13:12:20.545Z,0.80
2022-08-02T13:13:22.497Z,1.02
2022-08-02T13:14:24.082Z,0.93
2022-08-02T13:15:49.600Z,0.60
2022-08-02T13:16:51.537Z,0.98
2022-08-02T13:17:53.567Z,0.90
2022-08-02T13:18:55.128Z,0.73
2022-08-02T13:19:56.749Z,0.73
2022-08-02T13:20:59.175Z,0.73
2022-08-02T13:22:11.491Z,0.80
2022-08-02T13:23:21.227Z,0.70
2022-08-02T13:24:39.434Z,0.98
2022-08-02T13:25:45.296Z,0.80
2022-08-02T13:26:54.250Z,1.08
2022-08-02T13:27:55.927Z,0.90
2022-08-02T13:28:57.729Z,0.80
2022-08-02T13:30:00.417Z,0.80
2022-08-02T13:31:20.584Z,0.70
2022-08-02T13:32:25.129Z,0.73
2022-08-02T13:33:26.696Z,0.80
2022-08-02T13:34:28.335Z,1.13
2022-08-02T13:35:30.424Z,0.75
2022-08-02T13:36:33.719Z,1.10
2022-08-02T13:37:40.118Z,0.93
2022-08-02T13:38:42.190Z,0.82
2022-08-02T13:39:55.349Z,0.80
2022-08-02T13:41:11.097Z,0.95
2022-08-02T13:42:16.792Z,0.85
2022-08-02T13:43:18.632Z,1.00
2022-08-02T13:44:20.268Z,0.70
2022-08-02T13:45:22.113Z,0.90
2022-08-02T13:46:28.891Z,0.68
2022-08-02T13:47:36.532Z,0.90
2022-08-02T13:48:52.869Z,0.80
2022-08-02T13:49:54.589Z,0.80
2022-08-02T13:50:56.341Z,0.77
2022-08-02T13:51:57.925Z,0.90
2022-08-02T13:52:59.628Z,0.73
2022-08-02T13:54:01.279Z,0.60
2022-08-02T13:55:03.441Z,1.02
2022-08-02T13:56:14.072Z,0.82
2022-08-02T13:57:16.031Z,1.00
2022-08-02T13:58:17.634Z,0.85
2022-08-02T13:59:54.808Z,0.80
2022-08-02T14:00:41.026Z,1.05
2022-08-02T14:01:42.633Z,1.33
2022-08-02T14:02:44.262Z,0.80
2022-08-02T14:04:07.802Z,0.90
2022-08-02T14:05:07.853Z,0.90
2022-08-02T14:06:10.779Z,1.10
2022-08-02T14:07:12.952Z,1.17
2022-08-02T14:08:16.809Z,1.08
2022-08-02T14:09:19.042Z,0.90
2022-08-02T14:10:20.611Z,1.08
2022-08-02T14:11:22.322Z,1.00
2022-08-02T14:12:23.925Z,1.00
2022-08-02T14:13:25.622Z,1.00
2022-08-02T14:14:27.333Z,1.05
2022-08-02T14:15:30.391Z,1.13
2022-08-02T14:16:33.318Z,1.20
2022-08-02T14:17:35.076Z,0.80
2022-08-02T14:18:37.583Z,0.90
2022-08-02T14:19:40.030Z,0.80
2022-08-02T14:20:43.181Z,0.90
2022-08-02T14:21:47.008Z,0.80
2022-08-02T14:22:49.837Z,0.70
2022-08-02T14:23:51.446Z,0.82
2022-08-02T14:24:53.049Z,0.65
2022-08-02T14:25:54.640Z,0.80
2022-08-02T14:26:56.216Z,0.80
2022-08-02T14:27:57.801Z,0.80
2022-08-02T14:28:59.426Z,0.90
2022-08-02T14:30:01.140Z,0.80
2022-08-02T14:31:03.594Z,0.85
2022-08-02T14:32:05.544Z,0.90
2022-08-02T14:33:07.289Z,0.90
2022-08-02T14:34:08.927Z,0.80
2022-08-02T14:35:10.512Z,1.00
2022-08-02T14:36:12.089Z,0.77
2022-08-02T14:37:13.694Z,0.95
2022-08-02T14:38:19.273Z,0.80
2022-08-02T14:39:21.020Z,0.88